Time;durP1;ratioP1;P1;durP2;ratioP2;P2;SDS_P1;SDS_P2;PMS_P1;PMS_P2;Temp;Humidity;BMP_temperature;BMP_pressure;BME280_temperature;BME280_humidity;BME280_pressure;Samples;Min_cycle;Max_cycle;Signal;HPM_P1;HPM_P2
2021/06/15 05:10:47;;;;;;;15.93;9.70;;;;;;;22.62;70.22;98678.59;1705223;80;21127;-54
2021/06/15 05:13:14;;;;;;;16.65;10.40;;;;;;;22.63;68.30;98698.98;1687283;84;21740;-56
2021/06/15 05:15:43;;;;;;;15.70;10.05;;;;;;;22.59;68.63;98685.87;1686936;84;21091;-53
2021/06/15 05:18:10;;;;;;;14.60;9.78;;;;;;;22.78;68.24;98696.09;1721209;82;21044;-54
2021/06/15 05:20:38;;;;;;;15.35;9.63;;;;;;;23.02;68.28;98700.59;1721193;83;21067;-52
2021/06/15 05:23:31;;;;;;;13.72;9.40;;;;;;;23.36;66.70;98698.97;1723131;83;21039;-53
2021/06/15 05:25:58;;;;;;;16.27;9.73;;;;;;;23.49;64.70;98703.57;1723623;83;21039;-56
2021/06/15 05:28:28;;;;;;;15.80;8.80;;;;;;;23.50;64.54;98703.02;1714265;83;21456;-55
2021/06/15 05:30:55;;;;;;;13.80;9.43;;;;;;;23.54;64.78;98696.76;1727489;83;21115;-56
2021/06/15 05:33:23;;;;;;;13.85;9.53;;;;;;;23.80;63.15;98713.83;1725203;83;21043;-55
2021/06/15 05:35:50;;;;;;;16.50;9.60;;;;;;;23.92;62.37;98712.00;1722566;83;21020;-55
2021/06/15 05:38:18;;;;;;;13.80;9.70;;;;;;;24.04;62.79;98706.36;1719674;82;21024;-53
2021/06/15 05:40:47;;;;;;;14.20;8.98;;;;;;;24.28;61.99;98707.48;1717313;83;21048;-55
2021/06/15 05:43:16;;;;;;;13.07;8.87;;;;;;;24.39;61.60;98708.10;1715971;83;21523;-54
2021/06/15 05:45:44;;;;;;;13.40;8.85;;;;;;;24.44;60.60;98711.24;1715866;83;21088;-54
2021/06/15 05:48:14;;;;;;;13.40;9.23;;;;;;;24.52;60.32;98699.73;1716592;83;21052;-55
2021/06/15 05:50:42;;;;;;;14.95;8.90;;;;;;;24.68;60.70;98706.95;1715427;83;21020;-55
2021/06/15 05:53:09;;;;;;;13.80;9.43;;;;;;;24.91;59.37;98699.13;1730332;81;21024;-57
2021/06/15 05:55:37;;;;;;;15.53;10.03;;;;;;;25.06;58.29;98696.11;1743290;82;21070;-56
2021/06/15 05:58:06;;;;;;;13.85;9.28;;;;;;;25.01;58.26;98701.59;1743860;82;21056;-62
2021/06/15 06:00:34;;;;;;;12.18;8.45;;;;;;;25.04;58.97;98695.57;1740928;81;21043;-60
2021/06/15 06:03:06;;;;;;;15.43;8.98;;;;;;;25.13;58.32;98700.52;1735627;82;21533;-58
2021/06/15 06:08:21;;;;;;;13.80;8.60;;;;;;;25.28;57.51;98695.83;1759553;81;21523;-56
2021/06/15 06:10:49;;;;;;;10.45;6.22;;;;;;;25.20;58.97;98700.63;1754097;81;21407;-55
2021/06/15 06:13:19;;;;;;;12.50;8.43;;;;;;;25.30;58.78;98697.14;1752711;81;21032;-55
2021/06/15 06:15:46;;;;;;;13.53;8.37;;;;;;;25.67;57.55;98704.55;1746672;81;21083;-60
2021/06/15 06:18:14;;;;;;;12.93;8.28;;;;;;;25.72;56.82;98693.62;1743566;81;20981;-54
2021/06/15 06:20:42;;;;;;;13.32;9.23;;;;;;;25.64;57.82;98696.53;1736159;81;21466;-54
2021/06/15 06:23:10;;;;;;;13.95;8.48;;;;;;;25.72;56.49;98695.52;1756550;81;21078;-51
2021/06/15 06:25:39;;;;;;;12.18;7.95;;;;;;;25.58;57.55;98692.93;1726935;81;21063;-56
2021/06/15 06:28:06;;;;;;;11.25;8.03;;;;;;;25.46;56.83;98695.38;1744259;81;21055;-50
2021/06/15 06:30:36;;;;;;;14.93;8.05;;;;;;;25.12;57.12;98694.09;1747584;82;21043;-55
2021/06/15 06:33:03;;;;;;;11.28;7.65;;;;;;;24.79;58.80;98689.44;1740878;82;21488;-56
2021/06/15 06:35:32;;;;;;;11.75;8.05;;;;;;;24.59;60.31;98696.87;1760212;81;21008;-59
2021/06/15 06:37:59;;;;;;;11.83;8.35;;;;;;;24.61;60.67;98685.81;1744826;81;21458;-58
2021/06/15 06:40:27;;;;;;;12.05;8.05;;;;;;;24.68;60.52;98681.34;1741609;81;21048;-55
2021/06/15 06:42:54;;;;;;;14.15;8.53;;;;;;;24.76;60.68;98681.39;1745547;81;21168;-57
2021/06/15 06:45:22;;;;;;;13.72;8.20;;;;;;;24.85;59.80;98683.63;1658725;84;21050;-60
2021/06/15 06:47:50;;;;;;;12.40;7.95;;;;;;;24.93;59.42;98680.73;1727004;83;21587;-60
2021/06/15 06:50:18;;;;;;;11.28;8.25;;;;;;;24.94;59.04;98683.67;1730268;83;21488;-58
2021/06/15 06:52:45;;;;;;;11.05;7.85;;;;;;;24.85;59.82;98668.00;1734207;83;20980;-58
2021/06/15 06:55:21;;;;;;;12.60;7.90;;;;;;;24.92;60.13;98683.75;1734617;83;21071;-56
2021/06/15 06:57:47;;;;;;;12.15;7.62;;;;;;;24.98;59.59;98665.79;1738472;81;21043;-55
2021/06/15 07:00:16;;;;;;;14.03;8.08;;;;;;;25.12;60.13;98677.91;1761092;81;20988;-52
2021/06/15 07:02:43;;;;;;;12.37;7.90;;;;;;;25.30;59.05;98670.16;1759442;81;21652;-56
2021/06/15 07:05:13;;;;;;;10.23;7.47;;;;;;;25.39;57.99;98675.03;1758759;81;21055;-54
2021/06/15 07:07:40;;;;;;;9.90;7.30;;;;;;;25.42;58.66;98666.34;1759226;81;21510;-55
2021/06/15 07:10:09;;;;;;;12.85;7.92;;;;;;;25.41;58.07;98658.56;1753089;81;21068;-57
2021/06/15 07:12:36;;;;;;;10.93;7.25;;;;;;;25.37;58.54;98661.06;1728922;83;21503;-60
2021/06/15 07:15:06;;;;;;;12.65;7.97;;;;;;;25.50;59.29;98667.47;1716561;83;21049;-60
2021/06/15 07:17:34;;;;;;;12.80;7.45;;;;;;;25.64;58.67;98677.63;1683476;85;21490;-60
2021/06/15 07:20:02;;;;;;;12.18;7.70;;;;;;;25.74;58.40;98677.92;1709441;83;21080;-65
2021/06/15 07:22:30;;;;;;;14.05;7.50;;;;;;;25.80;56.58;98668.58;1726530;83;21017;-58
2021/06/15 07:24:58;;;;;;;11.83;8.48;;;;;;;25.79;57.39;98650.79;1727170;83;21076;-60
2021/06/15 07:27:25;;;;;;;11.63;7.92;;;;;;;25.71;58.08;98658.28;1717094;83;21073;-58
2021/06/15 07:29:54;;;;;;;10.05;7.62;;;;;;;25.62;58.34;98649.34;1713186;84;21559;-57
2021/06/15 07:32:22;;;;;;;11.25;7.53;;;;;;;25.64;60.20;98652.55;1729083;83;21006;-59
2021/06/15 07:34:49;;;;;;;13.65;8.10;;;;;;;25.69;58.32;98659.95;1703734;84;21031;-60
2021/06/15 07:37:17;;;;;;;13.03;7.67;;;;;;;25.76;58.60;98654.13;1692322;85;21058;-58
2021/06/15 07:39:46;;;;;;;11.57;7.85;;;;;;;25.75;58.66;98644.97;1660129;86;21095;-60
2021/06/15 07:42:14;;;;;;;12.75;7.87;;;;;;;25.73;57.09;98657.97;1659807;86;21555;-60
2021/06/15 07:44:42;;;;;;;10.48;7.50;;;;;;;25.53;58.35;98640.44;1689920;85;21073;-59
2021/06/15 07:47:10;;;;;;;11.88;7.40;;;;;;;25.37;58.46;98646.78;1658292;85;21090;-63
2021/06/15 07:49:40;;;;;;;11.10;7.65;;;;;;;25.28;60.45;98639.98;1690649;85;21549;-60
2021/06/15 07:52:07;;;;;;;11.18;8.18;;;;;;;25.14;60.36;98648.16;1690697;85;21084;-58
2021/06/15 07:54:36;;;;;;;11.28;8.23;;;;;;;24.91;61.62;98655.99;1690797;85;21101;-60
2021/06/15 07:57:06;;;;;;;10.60;8.10;;;;;;;24.75;61.87;98652.06;1690832;85;21006;-60
2021/06/15 07:59:36;;;;;;;10.55;7.10;;;;;;;24.56;63.04;98647.64;1714237;83;21022;-61
2021/06/15 08:02:04;;;;;;;13.00;8.10;;;;;;;24.52;66.22;98646.65;1716354;83;21069;-58
2021/06/15 08:04:31;;;;;;;14.30;8.63;;;;;;;24.48;65.35;98647.00;1727076;83;21598;-66
2021/06/15 08:07:01;;;;;;;11.35;8.05;;;;;;;24.41;64.59;98639.89;1718143;83;20993;-62
2021/06/15 08:09:29;;;;;;;11.53;7.17;;;;;;;24.34;65.81;98638.97;1718915;83;21030;-60
2021/06/15 08:11:56;;;;;;;12.07;7.50;;;;;;;24.33;63.99;98637.90;1728392;82;21037;-57
2021/06/15 08:14:24;;;;;;;14.98;7.80;;;;;;;24.24;65.73;98635.11;1713969;84;21046;-58
2021/06/15 08:16:53;;;;;;;14.87;7.92;;;;;;;24.14;65.68;98631.84;1723824;83;21516;-59
2021/06/15 08:19:20;;;;;;;11.43;7.53;;;;;;;24.03;66.59;98628.59;1683175;84;21046;-60
2021/06/15 08:21:48;;;;;;;11.60;7.80;;;;;;;23.88;67.50;98624.85;1728140;83;21049;-62
2021/06/15 08:24:17;;;;;;;13.10;7.40;;;;;;;23.75;68.08;98617.05;1678514;84;21381;-62
2021/06/15 08:26:45;;;;;;;13.40;8.15;;;;;;;23.62;69.20;98622.66;1689272;85;21018;-57
2021/06/15 08:29:14;;;;;;;13.38;8.15;;;;;;;23.51;68.00;98619.36;1690543;85;21098;-58
2021/06/15 08:31:43;;;;;;;9.58;7.47;;;;;;;23.52;70.80;98611.53;1690808;84;21521;-60
2021/06/15 08:34:11;;;;;;;11.93;7.50;;;;;;;23.66;69.33;98625.00;1690400;85;21002;-56
2021/06/15 08:36:39;;;;;;;12.85;7.33;;;;;;;23.69;67.37;98619.59;1727804;83;21575;-57
2021/06/15 08:39:07;;;;;;;12.70;7.20;;;;;;;23.65;68.15;98611.30;1716706;83;21088;-59
2021/06/15 08:41:36;;;;;;;10.40;7.37;;;;;;;23.66;68.35;98618.27;1727676;83;21501;-59
2021/06/15 08:44:05;;;;;;;11.12;6.55;;;;;;;23.67;68.44;98613.14;1717863;83;21045;-63
2021/06/15 08:46:33;;;;;;;14.90;7.20;;;;;;;23.72;67.74;98621.66;1713081;83;21040;-59
2021/06/15 08:49:01;;;;;;;12.35;6.78;;;;;;;23.77;66.99;98620.22;1691116;83;21148;-56
2021/06/15 08:51:29;;;;;;;13.05;7.67;;;;;;;23.77;66.78;98621.02;1690894;85;21038;-57
2021/06/15 08:54:03;;;;;;;11.90;7.35;;;;;;;23.79;68.45;98605.36;1691371;85;21094;-60
2021/06/15 08:56:30;;;;;;;11.37;6.63;;;;;;;23.82;65.59;98620.92;1681938;83;22346;-60
2021/06/15 08:59:17;;;;;;;;;;;;;;;23.80;66.19;98612.36;1677562;83;21077;-57
2021/06/15 09:01:46;;;;;;;12.13;7.28;;;;;;;23.84;67.33;98605.25;1688592;85;20765;-58
2021/06/15 09:04:13;;;;;;;11.45;6.47;;;;;;;23.90;64.91;98616.72;1691247;85;21057;-60
2021/06/15 09:06:43;;;;;;;10.23;6.40;;;;;;;23.92;64.37;98627.20;1660170;86;21495;-58
2021/06/15 09:09:10;;;;;;;11.65;6.50;;;;;;;23.96;64.16;98603.95;1692040;85;21154;-58
2021/06/15 09:11:58;;;;;;;10.63;6.45;;;;;;;23.95;63.63;98603.16;1700359;82;21094;-59
2021/06/15 09:14:53;;;;;;;12.55;6.40;;;;;;;24.00;63.32;98605.73;1703334;84;21051;-57
2021/06/15 09:17:33;;;;;;;11.10;6.75;;;;;;;24.13;63.81;98612.75;1701926;84;21533;-59
2021/06/15 09:20:14;;;;;;;8.93;6.30;;;;;;;24.20;64.00;98617.98;1702635;84;21097;-57
2021/06/15 09:22:41;;;;;;;12.13;6.37;;;;;;;24.31;60.81;98614.49;1702868;84;21844;-59
2021/06/15 09:25:13;;;;;;;9.80;6.37;;;;;;;24.40;60.97;98610.58;1703726;82;21074;-57
2021/06/15 09:27:41;;;;;;;10.75;6.20;;;;;;;24.42;63.59;98609.70;1703841;84;21026;-59
2021/06/15 09:30:11;;;;;;;11.63;6.40;;;;;;;24.52;61.05;98600.05;1703683;84;21541;-59
2021/06/15 09:32:41;;;;;;;9.48;6.50;;;;;;;24.61;60.93;98601.72;1704094;84;21560;-60
2021/06/15 09:35:15;;;;;;;10.80;6.12;;;;;;;24.82;58.91;98591.77;1701465;84;21030;-59
2021/06/15 09:37:50;;;;;;;8.43;6.58;;;;;;;24.87;59.29;98584.36;1740784;82;21045;-58
2021/06/15 09:40:31;;;;;;;10.75;5.75;;;;;;;24.97;59.33;98592.75;1739461;82;21020;-58
2021/06/15 09:43:12;;;;;;;10.72;5.80;;;;;;;25.05;59.23;98589.85;1741241;82;21517;-58
2021/06/15 09:45:43;;;;;;;7.80;5.42;;;;;;;25.12;58.48;98596.45;1741652;82;21036;-57
2021/06/15 09:48:25;;;;;;;;;;;;;;;25.27;58.64;98589.05;1743880;82;21020;-57
2021/06/15 09:50:53;;;;;;;11.53;6.47;;;;;;;25.45;55.67;98596.10;1740774;82;20409;-59
2021/06/15 09:53:35;;;;;;;10.20;6.50;;;;;;;25.45;56.05;98589.36;1740528;82;21043;-57
2021/06/15 09:56:10;;;;;;;9.15;5.90;;;;;;;25.58;57.93;98581.72;1739940;82;21036;-59
2021/06/15 09:58:48;;;;;;;9.15;5.95;;;;;;;25.90;56.68;98587.30;1740039;82;21024;-58
2021/06/15 10:01:38;;;;;;;8.50;5.25;;;;;;;26.04;54.80;98593.14;1740949;82;21000;-58
2021/06/15 10:04:21;;;;;;;14.23;8.43;;;;;;;26.05;54.77;98583.36;1741746;82;21020;-57
2021/06/15 10:06:58;;;;;;;9.50;6.28;;;;;;;25.89;55.61;98591.11;1741379;82;21103;-57
2021/06/15 10:09:34;;;;;;;15.65;10.63;;;;;;;25.75;58.17;98590.45;1741403;82;21204;-56
2021/06/15 10:12:08;;;;;;;17.12;8.93;;;;;;;25.66;55.87;98595.78;1737154;81;21572;-56
2021/06/15 10:14:38;;;;;;;18.98;10.15;;;;;;;25.51;57.06;98583.27;1733504;83;21484;-57
2021/06/15 10:17:05;;;;;;;14.05;7.50;;;;;;;25.42;58.44;98584.05;1734406;83;21558;-59
2021/06/15 10:19:33;;;;;;;15.18;8.73;;;;;;;25.31;58.49;98583.28;1733346;83;21551;-60
2021/06/15 10:22:01;;;;;;;11.15;6.33;;;;;;;25.16;58.81;98587.95;1731799;83;21459;-60
2021/06/15 10:24:29;;;;;;;9.80;5.72;;;;;;;25.00;58.11;98583.23;1721000;81;21007;-62
2021/06/15 10:26:57;;;;;;;9.63;6.67;;;;;;;24.93;58.15;98589.08;1735386;83;21523;-60
2021/06/15 10:29:25;;;;;;;13.95;7.30;;;;;;;25.07;59.12;98584.44;1735122;83;21024;-61
2021/06/15 10:31:53;;;;;;;15.28;8.08;;;;;;;25.34;58.47;98590.73;1734161;83;21015;-58
2021/06/15 10:35:02;;;;;;;10.45;6.28;;;;;;;25.58;58.99;98579.58;1730685;83;21081;-61
2021/06/15 10:37:38;;;;;;;11.03;6.05;;;;;;;25.84;57.37;98568.30;1700036;81;21073;-64
2021/06/15 10:40:29;;;;;;;12.80;5.95;;;;;;;25.93;56.43;98589.94;1689035;85;21046;-58
2021/06/15 10:43:32;;;;;;;9.33;5.58;;;;;;;25.95;56.28;98572.86;1690508;84;21026;-58
2021/06/15 10:46:22;;;;;;;9.68;5.80;;;;;;;25.89;54.72;98576.81;1689016;84;21060;-61
2021/06/15 10:48:59;;;;;;;8.65;5.45;;;;;;;25.98;55.38;98575.47;1717239;81;21065;-55
2021/06/15 10:51:43;;;;;;;8.13;6.00;;;;;;;26.25;55.50;98578.44;1688808;85;21548;-58
2021/06/15 10:54:32;;;;;;;9.13;5.70;;;;;;;26.38;55.19;98566.67;1691878;83;21105;-55
2021/06/15 10:57:21;;;;;;;8.70;5.40;;;;;;;26.31;54.97;98556.34;1704398;84;21056;-59
2021/06/15 11:00:16;;;;;;;8.60;5.47;;;;;;;26.20;55.19;98561.27;1706554;83;20965;-59
2021/06/15 11:03:19;;;;;;;9.50;6.03;;;;;;;26.20;54.78;98570.72;1679232;85;21080;-56
2021/06/15 11:05:57;;;;;;;9.78;5.60;;;;;;;26.19;56.39;98562.38;1724666;83;21510;-59
2021/06/15 11:08:30;;;;;;;9.48;5.65;;;;;;;26.30;55.08;98555.32;1730196;83;21142;-56
2021/06/15 11:11:05;;;;;;;7.60;5.67;;;;;;;26.19;54.66;98552.14;1728714;82;21113;-58
2021/06/15 11:13:49;;;;;;;17.12;5.90;;;;;;;26.00;54.68;98548.96;1704605;82;21085;-55
2021/06/15 11:16:27;;;;;;;8.05;5.28;;;;;;;25.79;54.50;98550.91;1716253;82;21078;-57
2021/06/15 11:19:13;;;;;;;8.58;5.05;;;;;;;25.60;55.25;98550.37;1717485;82;20996;-56
2021/06/15 11:21:59;;;;;;;7.42;5.42;;;;;;;25.51;54.73;98544.14;1721403;83;21460;-57
2021/06/15 11:24:41;;;;;;;9.15;5.65;;;;;;;25.50;55.66;98538.50;1728648;82;21043;-58
2021/06/15 11:27:26;;;;;;;7.45;5.28;;;;;;;25.49;55.33;98527.47;1733198;83;21052;-47
2021/06/15 11:30:13;;;;;;;8.43;5.83;;;;;;;25.61;55.32;98524.96;1736155;82;21056;-55
2021/06/15 11:32:56;;;;;;;12.28;6.17;;;;;;;25.73;55.30;98526.48;1733150;82;20996;-50
2021/06/15 11:35:24;;;;;;;7.95;5.53;;;;;;;25.57;56.82;98492.40;1729387;82;21000;-55
2021/06/15 11:37:52;;;;;;;10.10;5.80;;;;;;;25.31;58.25;98501.80;1709017;83;22435;-58
2021/06/15 11:40:35;;;;;;;8.10;5.80;;;;;;;25.16;57.27;98491.42;1735329;82;21038;-60
2021/06/15 11:43:16;;;;;;;10.20;6.12;;;;;;;25.00;57.98;98501.00;1702356;83;21046;-58
2021/06/15 11:45:51;;;;;;;11.95;6.17;;;;;;;24.92;58.82;98486.95;1711311;83;21064;-58
2021/06/15 11:48:35;;;;;;;9.55;6.25;;;;;;;24.99;58.13;98463.81;1694364;84;21111;-56
2021/06/15 11:51:11;;;;;;;7.58;5.75;;;;;;;25.19;58.08;98480.03;1694473;84;21470;-57
2021/06/15 11:53:41;;;;;;;7.12;5.53;;;;;;;25.40;58.64;98458.11;1707638;83;21094;-57
2021/06/15 11:56:12;;;;;;;8.85;5.70;;;;;;;25.61;57.33;98460.98;1728291;83;21011;-62
2021/06/15 11:58:47;;;;;;;11.22;6.12;;;;;;;25.75;56.92;98466.28;1728880;82;20968;-61
2021/06/15 12:01:16;;;;;;;10.80;5.70;;;;;;;25.69;56.01;98458.86;1730448;82;21086;-60
2021/06/15 12:03:46;;;;;;;8.25;5.80;;;;;;;25.65;56.01;98471.95;1733303;83;20995;-60
2021/06/15 12:06:16;;;;;;;8.37;5.80;;;;;;;25.70;55.56;98473.16;1728648;82;21014;-62
2021/06/15 12:08:45;;;;;;;12.43;6.15;;;;;;;25.80;55.04;98468.80;1733277;82;21027;-58
2021/06/15 12:11:16;;;;;;;8.88;5.30;;;;;;;25.83;55.52;98463.34;1731889;83;21044;-57
2021/06/15 12:13:45;;;;;;;8.23;5.42;;;;;;;25.84;54.97;98448.16;1730913;82;21500;-58
2021/06/15 12:16:16;;;;;;;10.38;6.20;;;;;;;25.92;53.80;98456.84;1725813;82;21041;-62
2021/06/15 12:18:49;;;;;;;10.18;5.80;;;;;;;26.05;53.22;98454.28;1734728;82;20994;-58
2021/06/15 12:21:35;;;;;;;8.93;6.05;;;;;;;26.12;54.51;98443.23;1720416;82;21073;-56
2021/06/15 12:24:06;;;;;;;9.58;5.50;;;;;;;26.17;52.57;98455.22;1715786;82;21005;-57
2021/06/15 12:26:46;;;;;;;8.85;5.35;;;;;;;25.98;52.54;98463.40;1740324;82;21060;-57
2021/06/15 12:29:14;;;;;;;7.55;5.40;;;;;;;25.72;52.81;98450.67;1738746;82;21035;-57
2021/06/15 12:31:51;;;;;;;7.50;4.90;;;;;;;25.51;52.74;98464.53;1742758;82;21073;-58
2021/06/15 12:34:21;;;;;;;7.70;5.20;;;;;;;25.44;53.68;98443.42;1744219;82;21508;-58
2021/06/15 12:36:56;;;;;;;8.20;5.12;;;;;;;25.58;53.56;98431.95;1743196;82;21040;-51
2021/06/15 12:39:45;;;;;;;7.37;5.35;;;;;;;25.76;52.39;98425.23;1742129;82;20977;-49
2021/06/15 12:42:15;;;;;;;7.60;5.33;;;;;;;25.87;53.26;98413.00;1722840;82;20985;-55
2021/06/15 12:44:56;;;;;;;8.10;5.20;;;;;;;26.03;53.27;98415.42;1741305;82;22193;-54
2021/06/15 12:47:33;;;;;;;9.88;5.50;;;;;;;26.24;53.21;98414.21;1739169;82;21031;-59
2021/06/15 12:50:05;;;;;;;8.83;5.20;;;;;;;26.48;52.10;98407.73;1699400;82;21298;-55
2021/06/15 12:52:44;;;;;;;5.12;4.42;;;;;;;26.56;51.15;98427.76;1740844;82;21036;-46
2021/06/15 12:55:16;;;;;;;6.60;5.10;;;;;;;26.56;48.19;98404.78;1740692;82;21024;-58
2021/06/15 12:57:59;;;;;;;5.87;5.15;;;;;;;26.46;49.63;98394.31;1739974;82;21017;-57
2021/06/15 13:00:35;;;;;;;6.30;5.03;;;;;;;26.43;49.96;98378.73;1741128;82;21030;-59
2021/06/15 13:03:12;;;;;;;7.10;4.80;;;;;;;26.39;50.05;98394.79;1711568;82;21113;-50
2021/06/15 13:05:51;;;;;;;9.48;5.28;;;;;;;26.49;49.75;98392.30;1725507;82;21071;-54
2021/06/15 13:08:20;;;;;;;7.08;4.50;;;;;;;26.52;50.33;98391.67;1713238;83;21056;-54
2021/06/15 13:10:49;;;;;;;7.47;4.55;;;;;;;26.62;47.97;98401.34;1656002;86;21132;-54
2021/06/15 13:13:18;;;;;;;7.67;4.90;;;;;;;26.62;47.52;98408.89;1707833;81;21087;-55
2021/06/15 13:15:47;;;;;;;5.95;4.62;;;;;;;26.60;48.96;98407.61;1730401;82;21489;-47
2021/06/15 13:18:14;;;;;;;9.55;4.85;;;;;;;26.73;47.78;98415.53;1697701;83;21066;-47
2021/06/15 13:20:42;;;;;;;11.05;4.85;;;;;;;26.66;48.83;98410.37;1690506;85;21085;-49
2021/06/15 13:23:19;;;;;;;13.80;4.85;;;;;;;26.29;49.01;98424.84;1690444;85;21147;-54
2021/06/15 13:25:48;;;;;;;7.87;5.03;;;;;;;25.88;52.88;98438.88;1688783;83;21029;-59
2021/06/15 13:28:30;;;;;;;9.68;5.10;;;;;;;25.27;54.68;98434.73;1669212;85;21558;-53
2021/06/15 13:31:00;;;;;;;8.15;4.78;;;;;;;24.80;54.67;98431.72;1732403;82;21455;-51
2021/06/15 13:33:35;;;;;;;5.50;4.22;;;;;;;24.47;54.65;98427.75;1732432;83;21056;-61
2021/06/15 13:36:01;;;;;;;7.58;4.83;;;;;;;24.30;53.60;98427.06;1734971;82;21049;-62
2021/06/15 13:38:31;;;;;;;6.67;4.60;;;;;;;24.21;53.74;98434.31;1710052;83;21018;-61
2021/06/15 13:41:04;;;;;;;;;;;;;;;24.15;55.13;98431.50;1724992;81;21563;-59
2021/06/15 13:43:47;;;;;;;11.22;6.12;;;;;;;24.13;56.59;98426.95;1736031;82;20457;-58
2021/06/15 13:46:27;;;;;;;9.10;5.30;;;;;;;24.14;57.81;98430.69;1742473;82;21503;-58
2021/06/15 13:49:00;;;;;;;8.75;5.70;;;;;;;24.15;59.45;98425.56;1752325;82;21024;-59
2021/06/15 13:51:37;;;;;;;10.03;5.85;;;;;;;24.23;59.69;98424.81;1699337;82;20996;-61
2021/06/15 13:54:17;;;;;;;11.63;6.25;;;;;;;24.26;60.24;98423.42;1737939;82;20995;-50
2021/06/15 13:56:48;;;;;;;10.38;5.47;;;;;;;24.26;59.21;98423.42;1705037;84;21076;-62
